WZZ368V LEVC-LBSF
Flight info
| Callsign | WZZ368V |
|---|---|
| Flight time | 2h 44m |
| Altitude | 34000 |
| Route | ORVUS DCT GODOX DCT EDULI DCT PTC DCT MHN DCT MORSS DCT BAVON DCT ORKUM DCT ELSAG DCT ALG DCT MINKA DCT ROMPO DCT RUXOP DCT BATOX DCT PEMAR DCT XOLTA DCT BUNEX DCT BAJUN DCT NISVA |
| Aircraft | A321/M-SDE1E2E3FGIJ1J4RWXY/LB1 |
Departure
| Time | 2026-05-05 12:25 |
|---|---|
| Airport | Valencia Airport (LEVC) |
Arrival
| Time | 2026-05-05 15:10 |
|---|---|
| Airport | Sofia Airport (LBSF) |
| Time | Latitude | Longitude | Altitude | Speed | Heading |
|---|---|---|---|---|---|
| 2026-05-05 12:00 | 39.49039 | -0.47334 | 207 ft | 0 kts | 12° |
| 2026-05-05 12:16 | 39.49034 | -0.47335 | 213 ft | 3 kts | 13° |
| 2026-05-05 12:16 | 39.49010 | -0.47348 | 201 ft | 4 kts | 25° |
| 2026-05-05 12:17 | 39.48987 | -0.47361 | 207 ft | 4 kts | 36° |
| 2026-05-05 12:17 | 39.48972 | -0.47384 | 206 ft | 4 kts | 82° |
| 2026-05-05 12:17 | 39.48974 | -0.47412 | 204 ft | 1 kts | 116° |
| 2026-05-05 12:20 | 39.48974 | -0.47411 | 204 ft | 1 kts | 116° |
| 2026-05-05 12:20 | 39.48972 | -0.47406 | 211 ft | 0 kts | 116° |
| 2026-05-05 12:21 | 39.48971 | -0.47405 | 211 ft | 1 kts | 116° |
| 2026-05-05 12:21 | 39.48961 | -0.47379 | 208 ft | 6 kts | 116° |
| 2026-05-05 12:21 | 39.48936 | -0.47314 | 198 ft | 10 kts | 116° |
| 2026-05-05 12:22 | 39.48883 | -0.47240 | 194 ft | 12 kts | 156° |
| 2026-05-05 12:22 | 39.48800 | -0.47191 | 201 ft | 14 kts | 153° |
| 2026-05-05 12:22 | 39.48725 | -0.47093 | 187 ft | 18 kts | 116° |
| 2026-05-05 12:22 | 39.48678 | -0.46965 | 198 ft | 16 kts | 116° |
| 2026-05-05 12:23 | 39.48620 | -0.46825 | 180 ft | 19 kts | 127° |
| 2026-05-05 12:23 | 39.48568 | -0.46746 | 179 ft | 8 kts | 135° |
| 2026-05-05 12:23 | 39.48519 | -0.46701 | 180 ft | 9 kts | 155° |
| 2026-05-05 12:23 | 39.48462 | -0.46694 | 180 ft | 7 kts | 212° |
| 2026-05-05 12:24 | 39.48418 | -0.46712 | 181 ft | 6 kts | 197° |
| 2026-05-05 12:24 | 39.48400 | -0.46748 | 183 ft | 4 kts | 259° |
| 2026-05-05 12:24 | 39.48408 | -0.46788 | 183 ft | 6 kts | 295° |
| 2026-05-05 12:24 | 39.48451 | -0.46901 | 184 ft | 38 kts | 296° |
| 2026-05-05 12:25 | 39.48675 | -0.47486 | 200 ft | 104 kts | 296° |
| 2026-05-05 12:25 | 39.49073 | -0.48540 | 221 ft | 154 kts | 293° |
| 2026-05-05 12:25 | 39.49578 | -0.49826 | 633 ft | 165 kts | 292° |
| 2026-05-05 12:25 | 39.50144 | -0.51198 | 1150 ft | 180 kts | 295° |
| 2026-05-05 12:26 | 39.50760 | -0.52647 | 1734 ft | 188 kts | 296° |
| 2026-05-05 12:26 | 39.51411 | -0.54132 | 2383 ft | 189 kts | 297° |
| 2026-05-05 12:26 | 39.52129 | -0.55677 | 2745 ft | 213 kts | 298° |
| 2026-05-05 12:26 | 39.52960 | -0.57390 | 3173 ft | 233 kts | 294° |
| 2026-05-05 12:27 | 39.53306 | -0.59415 | 3887 ft | 235 kts | 263° |
| 2026-05-05 12:27 | 39.52696 | -0.61360 | 4669 ft | 238 kts | 231° |
| 2026-05-05 12:27 | 39.51407 | -0.62783 | 5317 ft | 253 kts | 212° |
| 2026-05-05 12:27 | 39.49713 | -0.63575 | 5952 ft | 268 kts | 192° |
| 2026-05-05 12:28 | 39.47813 | -0.63589 | 6563 ft | 281 kts | 174° |
| 2026-05-05 12:28 | 39.45915 | -0.62779 | 7139 ft | 295 kts | 156° |
| 2026-05-05 12:28 | 39.44082 | -0.61598 | 7823 ft | 300 kts | 157° |
| 2026-05-05 12:28 | 39.42190 | -0.60348 | 8414 ft | 312 kts | 152° |
| 2026-05-05 12:29 | 39.40417 | -0.58641 | 9017 ft | 325 kts | 140° |
| 2026-05-05 12:29 | 39.38860 | -0.56430 | 9804 ft | 326 kts | 127° |
| 2026-05-05 12:29 | 39.37748 | -0.53960 | 10972 ft | 315 kts | 116° |
| 2026-05-05 12:29 | 39.37044 | -0.51266 | 11450 ft | 332 kts | 104° |
| 2026-05-05 12:30 | 39.36803 | -0.48199 | 11595 ft | 356 kts | 93° |
| 2026-05-05 12:30 | 39.36713 | -0.44918 | 11858 ft | 372 kts | 94° |
| 2026-05-05 12:30 | 39.36615 | -0.41542 | 12366 ft | 379 kts | 94° |
| 2026-05-05 12:30 | 39.36503 | -0.38113 | 12916 ft | 385 kts | 94° |
| 2026-05-05 12:31 | 39.36378 | -0.34638 | 13460 ft | 391 kts | 95° |
| 2026-05-05 12:31 | 39.36245 | -0.31095 | 13973 ft | 397 kts | 95° |
| 2026-05-05 12:31 | 39.36105 | -0.27510 | 14505 ft | 401 kts | 95° |
| 2026-05-05 12:31 | 39.35961 | -0.23892 | 15045 ft | 405 kts | 96° |
| 2026-05-05 12:32 | 39.35815 | -0.20244 | 15597 ft | 409 kts | 96° |
| 2026-05-05 12:32 | 39.35669 | -0.16558 | 15860 ft | 412 kts | 96° |
| 2026-05-05 12:32 | 39.35524 | -0.12847 | 16273 ft | 415 kts | 96° |
| 2026-05-05 12:32 | 39.35377 | -0.09113 | 16835 ft | 418 kts | 96° |
| 2026-05-05 12:33 | 39.35225 | -0.05339 | 17373 ft | 422 kts | 96° |
| 2026-05-05 12:33 | 39.35067 | -0.01532 | 17898 ft | 426 kts | 96° |
| 2026-05-05 12:33 | 39.34906 | 0.02306 | 18394 ft | 430 kts | 96° |
| 2026-05-05 12:33 | 39.34745 | 0.06185 | 18853 ft | 434 kts | 96° |
| 2026-05-05 12:34 | 39.34583 | 0.10092 | 19320 ft | 437 kts | 96° |
| 2026-05-05 12:34 | 39.34418 | 0.14024 | 19789 ft | 440 kts | 97° |
| 2026-05-05 12:34 | 39.34248 | 0.17991 | 20258 ft | 444 kts | 97° |
| 2026-05-05 12:34 | 39.34077 | 0.21989 | 20725 ft | 447 kts | 97° |
| 2026-05-05 12:35 | 39.33906 | 0.26014 | 21199 ft | 451 kts | 97° |
| 2026-05-05 12:35 | 39.33733 | 0.30072 | 21665 ft | 454 kts | 97° |
| 2026-05-05 12:35 | 39.33559 | 0.34156 | 22115 ft | 457 kts | 97° |
| 2026-05-05 12:35 | 39.33382 | 0.38270 | 22543 ft | 460 kts | 97° |
| 2026-05-05 12:36 | 39.33204 | 0.42411 | 22977 ft | 464 kts | 96° |
| 2026-05-05 12:36 | 39.33145 | 0.46600 | 23399 ft | 469 kts | 93° |
| 2026-05-05 12:36 | 39.33254 | 0.50827 | 23763 ft | 473 kts | 90° |
| 2026-05-05 12:36 | 39.33482 | 0.55083 | 24109 ft | 476 kts | 89° |
| 2026-05-05 12:37 | 39.33763 | 0.59355 | 24458 ft | 479 kts | 88° |
| 2026-05-05 12:37 | 39.34049 | 0.63653 | 24807 ft | 482 kts | 89° |
| 2026-05-05 12:37 | 39.34309 | 0.67973 | 25141 ft | 484 kts | 89° |
| 2026-05-05 12:37 | 39.34532 | 0.72319 | 25475 ft | 486 kts | 90° |
| 2026-05-05 12:38 | 39.34720 | 0.76686 | 25802 ft | 488 kts | 91° |
| 2026-05-05 12:38 | 39.34889 | 0.81075 | 26128 ft | 491 kts | 91° |
| 2026-05-05 12:38 | 39.35055 | 0.85490 | 26453 ft | 493 kts | 91° |
| 2026-05-05 12:38 | 39.35223 | 0.89868 | 26768 ft | 496 kts | 91° |
| 2026-05-05 12:39 | 39.35401 | 0.94380 | 27083 ft | 498 kts | 91° |
| 2026-05-05 12:39 | 39.35584 | 0.98863 | 27394 ft | 501 kts | 91° |
| 2026-05-05 12:39 | 39.35769 | 1.03310 | 27695 ft | 503 kts | 91° |
| 2026-05-05 12:39 | 39.35961 | 1.07894 | 27995 ft | 506 kts | 91° |
| 2026-05-05 12:40 | 39.36145 | 1.12380 | 28290 ft | 508 kts | 91° |
| 2026-05-05 12:40 | 39.36329 | 1.16954 | 28585 ft | 511 kts | 91° |
| 2026-05-05 12:40 | 39.36511 | 1.21541 | 28869 ft | 513 kts | 91° |
| 2026-05-05 12:40 | 39.36694 | 1.26157 | 29149 ft | 515 kts | 91° |
| 2026-05-05 12:41 | 39.36874 | 1.30789 | 29426 ft | 517 kts | 91° |
| 2026-05-05 12:41 | 39.37049 | 1.35437 | 29717 ft | 519 kts | 91° |
| 2026-05-05 12:41 | 39.37225 | 1.40111 | 30003 ft | 522 kts | 91° |
| 2026-05-05 12:41 | 39.37402 | 1.44804 | 30264 ft | 524 kts | 91° |
| 2026-05-05 12:42 | 39.37577 | 1.49506 | 30587 ft | 523 kts | 92° |
| 2026-05-05 12:42 | 39.37749 | 1.54194 | 30967 ft | 521 kts | 92° |
| 2026-05-05 12:42 | 39.37920 | 1.58861 | 31349 ft | 520 kts | 92° |
| 2026-05-05 12:42 | 39.38089 | 1.63518 | 31722 ft | 518 kts | 92° |
| 2026-05-05 12:43 | 39.38242 | 1.67819 | 32065 ft | 517 kts | 92° |
| 2026-05-05 12:43 | 39.38406 | 1.72455 | 32430 ft | 515 kts | 92° |
| 2026-05-05 12:43 | 39.38567 | 1.77097 | 32799 ft | 514 kts | 92° |
| 2026-05-05 12:43 | 39.38725 | 1.81699 | 33162 ft | 512 kts | 92° |
| 2026-05-05 12:44 | 39.38879 | 1.86242 | 33517 ft | 511 kts | 92° |
| 2026-05-05 12:44 | 39.39033 | 1.90837 | 33850 ft | 510 kts | 93° |
| 2026-05-05 12:44 | 39.39337 | 1.99955 | 33942 ft | 503 kts | 93° |
| 2026-05-05 12:45 | 39.39625 | 2.08974 | 33942 ft | 500 kts | 93° |
| 2026-05-05 12:45 | 39.39902 | 2.17959 | 33947 ft | 499 kts | 93° |
| 2026-05-05 12:46 | 39.40181 | 2.26925 | 33941 ft | 499 kts | 93° |
| 2026-05-05 12:46 | 39.40431 | 2.35189 | 33958 ft | 499 kts | 94° |
| 2026-05-05 12:47 | 39.40681 | 2.44182 | 33956 ft | 499 kts | 94° |
| 2026-05-05 12:47 | 39.40931 | 2.53095 | 33955 ft | 499 kts | 94° |
| 2026-05-05 12:48 | 39.41183 | 2.62080 | 33967 ft | 499 kts | 94° |
| 2026-05-05 12:48 | 39.41433 | 2.71059 | 33964 ft | 498 kts | 94° |
| 2026-05-05 12:49 | 39.41665 | 2.79973 | 33965 ft | 498 kts | 94° |
| 2026-05-05 12:49 | 39.41882 | 2.88919 | 33963 ft | 498 kts | 94° |
| 2026-05-05 12:50 | 39.42099 | 2.97879 | 33965 ft | 497 kts | 94° |
| 2026-05-05 12:50 | 39.42264 | 3.04627 | 33961 ft | 497 kts | 94° |
| 2026-05-05 12:51 | 39.42473 | 3.13563 | 33959 ft | 497 kts | 94° |
| 2026-05-05 12:51 | 39.42963 | 3.22491 | 33957 ft | 503 kts | 83° |
| 2026-05-05 12:52 | 39.45281 | 3.31084 | 33953 ft | 511 kts | 63° |
| 2026-05-05 12:52 | 39.48907 | 3.39008 | 33953 ft | 512 kts | 60° |
| 2026-05-05 12:53 | 39.52542 | 3.46934 | 33952 ft | 512 kts | 61° |
| 2026-05-05 12:53 | 39.56143 | 3.54831 | 33957 ft | 513 kts | 61° |
| 2026-05-05 12:54 | 39.61587 | 3.66770 | 33953 ft | 513 kts | 61° |
| 2026-05-05 12:55 | 39.65220 | 3.74743 | 33953 ft | 513 kts | 61° |
| 2026-05-05 12:55 | 39.68848 | 3.82727 | 33958 ft | 514 kts | 61° |
| 2026-05-05 12:56 | 39.71886 | 3.89433 | 33959 ft | 514 kts | 61° |
| 2026-05-05 12:56 | 39.75483 | 3.97387 | 33967 ft | 514 kts | 61° |
| 2026-05-05 12:57 | 39.79112 | 4.05459 | 33972 ft | 514 kts | 61° |
| 2026-05-05 12:57 | 39.82713 | 4.13498 | 33982 ft | 514 kts | 61° |
| 2026-05-05 12:58 | 39.86126 | 4.21658 | 33978 ft | 512 kts | 70° |
| 2026-05-05 12:58 | 39.88203 | 4.30400 | 33972 ft | 508 kts | 79° |
| 2026-05-05 12:59 | 39.90036 | 4.39289 | 33973 ft | 508 kts | 78° |
| 2026-05-05 12:59 | 39.91877 | 4.48184 | 33974 ft | 509 kts | 78° |
| 2026-05-05 13:00 | 39.94632 | 4.61540 | 33975 ft | 509 kts | 78° |
| 2026-05-05 13:01 | 39.98409 | 4.78986 | 33971 ft | 510 kts | 76° |
| 2026-05-05 13:01 | 40.00502 | 4.87831 | 33971 ft | 510 kts | 76° |
| 2026-05-05 13:02 | 40.02556 | 4.96692 | 33975 ft | 510 kts | 77° |
| 2026-05-05 13:02 | 40.04555 | 5.05569 | 33977 ft | 510 kts | 77° |
| 2026-05-05 13:03 | 40.06540 | 5.14455 | 33973 ft | 510 kts | 77° |
| 2026-05-05 13:03 | 40.08526 | 5.23354 | 33976 ft | 511 kts | 77° |
| 2026-05-05 13:04 | 40.10522 | 5.32257 | 33981 ft | 511 kts | 77° |
| 2026-05-05 13:04 | 40.12516 | 5.41163 | 33983 ft | 511 kts | 77° |
| 2026-05-05 13:05 | 40.14480 | 5.50017 | 33982 ft | 511 kts | 77° |
| 2026-05-05 13:05 | 40.16450 | 5.58934 | 33982 ft | 511 kts | 77° |
| 2026-05-05 13:06 | 40.18406 | 5.67869 | 33985 ft | 511 kts | 77° |
| 2026-05-05 13:06 | 40.20361 | 5.76803 | 33981 ft | 511 kts | 77° |
| 2026-05-05 13:07 | 40.22310 | 5.85739 | 33982 ft | 511 kts | 77° |
| 2026-05-05 13:07 | 40.24249 | 5.94682 | 33979 ft | 511 kts | 77° |
| 2026-05-05 13:08 | 40.26180 | 6.03622 | 33977 ft | 511 kts | 77° |
| 2026-05-05 13:08 | 40.28117 | 6.12567 | 33973 ft | 511 kts | 77° |
| 2026-05-05 13:09 | 40.30043 | 6.21525 | 33974 ft | 511 kts | 77° |
| 2026-05-05 13:09 | 40.31962 | 6.30491 | 33978 ft | 511 kts | 77° |
| 2026-05-05 13:10 | 40.33865 | 6.39460 | 33983 ft | 511 kts | 77° |
| 2026-05-05 13:10 | 40.35764 | 6.48432 | 33992 ft | 511 kts | 77° |
| 2026-05-05 13:11 | 40.37661 | 6.57403 | 33996 ft | 511 kts | 77° |
| 2026-05-05 13:11 | 40.39554 | 6.66388 | 33999 ft | 511 kts | 77° |
| 2026-05-05 13:12 | 40.41431 | 6.75379 | 34001 ft | 511 kts | 77° |
| 2026-05-05 13:12 | 40.43299 | 6.84372 | 34000 ft | 511 kts | 77° |
| 2026-05-05 13:13 | 40.45168 | 6.93374 | 34004 ft | 511 kts | 77° |
| 2026-05-05 13:13 | 40.47036 | 7.02366 | 33998 ft | 511 kts | 77° |
| 2026-05-05 13:14 | 40.48887 | 7.11372 | 33998 ft | 510 kts | 77° |
| 2026-05-05 13:14 | 40.50717 | 7.20318 | 33995 ft | 511 kts | 77° |
| 2026-05-05 13:15 | 40.52554 | 7.29328 | 33999 ft | 511 kts | 77° |
| 2026-05-05 13:15 | 40.54388 | 7.38347 | 33998 ft | 511 kts | 77° |
| 2026-05-05 13:16 | 40.56185 | 7.47379 | 33995 ft | 510 kts | 81° |
| 2026-05-05 13:16 | 40.57118 | 7.56581 | 33996 ft | 507 kts | 87° |
| 2026-05-05 13:17 | 40.57913 | 7.65798 | 33994 ft | 507 kts | 86° |
| 2026-05-05 13:17 | 40.58706 | 7.75013 | 33993 ft | 507 kts | 86° |
| 2026-05-05 13:18 | 40.59486 | 7.84234 | 33997 ft | 507 kts | 86° |
| 2026-05-05 13:18 | 40.60260 | 7.93459 | 34001 ft | 507 kts | 86° |
| 2026-05-05 13:19 | 40.61034 | 8.02685 | 34007 ft | 507 kts | 86° |
| 2026-05-05 13:19 | 40.61802 | 8.11912 | 34000 ft | 507 kts | 86° |
| 2026-05-05 13:20 | 40.62589 | 8.21135 | 34011 ft | 508 kts | 83° |
| 2026-05-05 13:20 | 40.64404 | 8.29429 | 34014 ft | 511 kts | 67° |
| 2026-05-05 13:21 | 40.66682 | 8.36565 | 34009 ft | 511 kts | 68° |
| 2026-05-05 13:21 | 40.69377 | 8.45158 | 34010 ft | 511 kts | 68° |
| 2026-05-05 13:22 | 40.72065 | 8.53820 | 34011 ft | 511 kts | 68° |
| 2026-05-05 13:22 | 40.74763 | 8.62481 | 34013 ft | 510 kts | 68° |
| 2026-05-05 13:23 | 40.77462 | 8.71133 | 34011 ft | 510 kts | 68° |
| 2026-05-05 13:23 | 40.80144 | 8.79784 | 34014 ft | 509 kts | 68° |
| 2026-05-05 13:24 | 40.82827 | 8.88485 | 34012 ft | 508 kts | 68° |
| 2026-05-05 13:24 | 40.85483 | 8.97063 | 34012 ft | 508 kts | 67° |
| 2026-05-05 13:25 | 40.88158 | 9.05684 | 34009 ft | 507 kts | 67° |
| 2026-05-05 13:25 | 40.90819 | 9.14310 | 34013 ft | 507 kts | 68° |
| 2026-05-05 13:26 | 40.93469 | 9.22940 | 34017 ft | 507 kts | 68° |
| 2026-05-05 13:26 | 40.96012 | 9.31267 | 34018 ft | 507 kts | 68° |
| 2026-05-05 13:27 | 40.98643 | 9.39892 | 34019 ft | 507 kts | 68° |
| 2026-05-05 13:27 | 41.01288 | 9.48563 | 34020 ft | 507 kts | 67° |
| 2026-05-05 13:28 | 41.03909 | 9.57214 | 34020 ft | 507 kts | 68° |
| 2026-05-05 13:28 | 41.06537 | 9.65916 | 34019 ft | 508 kts | 68° |
| 2026-05-05 13:29 | 41.09151 | 9.74613 | 34025 ft | 508 kts | 68° |
| 2026-05-05 13:29 | 41.11761 | 9.83317 | 34027 ft | 507 kts | 68° |
| 2026-05-05 13:30 | 41.14321 | 9.92007 | 34033 ft | 507 kts | 68° |
| 2026-05-05 13:30 | 41.16703 | 10.00174 | 34031 ft | 507 kts | 68° |
| 2026-05-05 13:31 | 41.19262 | 10.08892 | 34035 ft | 507 kts | 68° |
| 2026-05-05 13:31 | 41.21853 | 10.17589 | 34031 ft | 506 kts | 67° |
| 2026-05-05 13:32 | 41.24531 | 10.26237 | 34035 ft | 506 kts | 66° |
| 2026-05-05 13:32 | 41.27243 | 10.34856 | 34034 ft | 505 kts | 66° |
| 2026-05-05 13:33 | 41.29924 | 10.43487 | 34038 ft | 505 kts | 66° |
| 2026-05-05 13:33 | 41.32579 | 10.52132 | 34037 ft | 504 kts | 66° |
| 2026-05-05 13:34 | 41.35225 | 10.60772 | 34043 ft | 504 kts | 66° |
| 2026-05-05 13:34 | 41.37870 | 10.69412 | 34042 ft | 503 kts | 66° |
| 2026-05-05 13:35 | 41.40485 | 10.77988 | 34044 ft | 503 kts | 66° |
| 2026-05-05 13:35 | 41.43107 | 10.86621 | 34045 ft | 502 kts | 66° |
| 2026-05-05 13:36 | 41.45723 | 10.95253 | 34040 ft | 502 kts | 66° |
| 2026-05-05 13:36 | 41.48329 | 11.03882 | 34046 ft | 501 kts | 66° |
| 2026-05-05 13:37 | 41.50918 | 11.12505 | 34045 ft | 501 kts | 66° |
| 2026-05-05 13:37 | 41.53504 | 11.21134 | 34048 ft | 501 kts | 66° |
| 2026-05-05 13:38 | 41.56082 | 11.29760 | 34049 ft | 500 kts | 66° |
| 2026-05-05 13:38 | 41.58657 | 11.38402 | 34057 ft | 500 kts | 66° |
| 2026-05-05 13:39 | 41.61221 | 11.47046 | 34059 ft | 500 kts | 66° |
| 2026-05-05 13:39 | 41.63776 | 11.55681 | 34061 ft | 500 kts | 66° |
| 2026-05-05 13:40 | 41.66332 | 11.64328 | 34065 ft | 500 kts | 66° |
| 2026-05-05 13:40 | 41.68873 | 11.72979 | 34073 ft | 500 kts | 67° |
| 2026-05-05 13:41 | 41.71411 | 11.81637 | 34074 ft | 500 kts | 67° |
| 2026-05-05 13:41 | 41.73936 | 11.90309 | 34088 ft | 500 kts | 67° |
| 2026-05-05 13:42 | 41.76462 | 11.98997 | 34098 ft | 500 kts | 67° |
| 2026-05-05 13:42 | 41.78987 | 12.07682 | 34103 ft | 500 kts | 67° |
| 2026-05-05 13:43 | 41.81487 | 12.16312 | 34105 ft | 500 kts | 67° |
| 2026-05-05 13:43 | 41.83586 | 12.23600 | 34104 ft | 500 kts | 67° |
| 2026-05-05 13:44 | 41.86481 | 12.33714 | 34102 ft | 499 kts | 67° |
| 2026-05-05 13:44 | 41.88560 | 12.41006 | 34105 ft | 499 kts | 67° |
| 2026-05-05 13:45 | 41.91035 | 12.49682 | 34097 ft | 498 kts | 67° |
| 2026-05-05 13:45 | 41.93495 | 12.58316 | 34104 ft | 497 kts | 67° |
| 2026-05-05 13:46 | 41.95957 | 12.66984 | 34130 ft | 496 kts | 67° |
| 2026-05-05 13:46 | 41.98403 | 12.75653 | 34131 ft | 496 kts | 67° |
| 2026-05-05 13:47 | 42.00839 | 12.84316 | 34132 ft | 495 kts | 67° |
| 2026-05-05 13:47 | 42.03263 | 12.92967 | 34116 ft | 494 kts | 68° |
| 2026-05-05 13:48 | 42.05534 | 13.01679 | 34110 ft | 493 kts | 70° |
| 2026-05-05 13:48 | 42.07682 | 13.10444 | 34104 ft | 493 kts | 70° |
| 2026-05-05 13:49 | 42.09835 | 13.19210 | 34095 ft | 493 kts | 70° |
| 2026-05-05 13:49 | 42.12016 | 13.27946 | 34087 ft | 492 kts | 70° |
| 2026-05-05 13:50 | 42.14199 | 13.36676 | 34086 ft | 491 kts | 70° |
| 2026-05-05 13:50 | 42.16373 | 13.45399 | 34077 ft | 491 kts | 70° |
| 2026-05-05 13:51 | 42.18529 | 13.54123 | 34067 ft | 491 kts | 70° |
| 2026-05-05 13:51 | 42.20670 | 13.62857 | 34057 ft | 490 kts | 71° |
| 2026-05-05 13:52 | 42.22809 | 13.71585 | 34052 ft | 491 kts | 71° |
| 2026-05-05 13:52 | 42.24949 | 13.80329 | 34044 ft | 491 kts | 71° |
| 2026-05-05 13:53 | 42.27081 | 13.89085 | 34041 ft | 490 kts | 71° |
| 2026-05-05 13:53 | 42.29205 | 13.97825 | 34046 ft | 490 kts | 71° |
| 2026-05-05 13:54 | 42.31317 | 14.06572 | 34060 ft | 490 kts | 71° |
| 2026-05-05 13:54 | 42.33402 | 14.15271 | 34075 ft | 490 kts | 71° |
| 2026-05-05 13:55 | 42.35494 | 14.24019 | 34072 ft | 489 kts | 71° |
| 2026-05-05 13:55 | 42.37588 | 14.32760 | 34069 ft | 488 kts | 71° |
| 2026-05-05 13:56 | 42.39674 | 14.41495 | 34057 ft | 488 kts | 71° |
| 2026-05-05 13:56 | 42.41744 | 14.50236 | 34049 ft | 487 kts | 71° |
| 2026-05-05 13:57 | 42.43795 | 14.58973 | 34039 ft | 487 kts | 71° |
| 2026-05-05 13:57 | 42.45846 | 14.67711 | 34025 ft | 487 kts | 71° |
| 2026-05-05 13:58 | 42.47898 | 14.76446 | 34032 ft | 487 kts | 71° |
| 2026-05-05 13:58 | 42.49941 | 14.85186 | 34024 ft | 486 kts | 71° |
| 2026-05-05 13:59 | 42.52989 | 14.98295 | 34025 ft | 486 kts | 71° |
| 2026-05-05 14:00 | 42.56010 | 15.11424 | 34036 ft | 487 kts | 71° |
| 2026-05-05 14:00 | 42.58025 | 15.20191 | 34041 ft | 487 kts | 71° |
| 2026-05-05 14:01 | 42.60035 | 15.28962 | 34039 ft | 486 kts | 71° |
| 2026-05-05 14:01 | 42.62032 | 15.37730 | 34038 ft | 486 kts | 71° |
| 2026-05-05 14:02 | 42.64024 | 15.46502 | 34044 ft | 486 kts | 71° |
| 2026-05-05 14:02 | 42.66016 | 15.55278 | 34051 ft | 486 kts | 71° |
| 2026-05-05 14:03 | 42.67994 | 15.64071 | 34046 ft | 487 kts | 71° |
| 2026-05-05 14:03 | 42.69958 | 15.72866 | 34054 ft | 487 kts | 71° |
| 2026-05-05 14:04 | 42.71458 | 15.81860 | 34054 ft | 489 kts | 77° |
| 2026-05-05 14:04 | 42.72819 | 15.90859 | 34056 ft | 489 kts | 77° |
| 2026-05-05 14:05 | 42.74184 | 15.99924 | 34062 ft | 489 kts | 77° |
| 2026-05-05 14:05 | 42.75552 | 16.09001 | 34073 ft | 490 kts | 76° |
| 2026-05-05 14:06 | 42.76909 | 16.18082 | 34076 ft | 490 kts | 77° |
| 2026-05-05 14:06 | 42.78244 | 16.27173 | 34082 ft | 490 kts | 77° |
| 2026-05-05 14:07 | 42.79574 | 16.36272 | 34081 ft | 490 kts | 77° |
| 2026-05-05 14:07 | 42.80898 | 16.45368 | 34084 ft | 489 kts | 77° |
| 2026-05-05 14:08 | 42.82216 | 16.54456 | 34088 ft | 489 kts | 77° |
| 2026-05-05 14:08 | 42.83534 | 16.63534 | 34094 ft | 488 kts | 77° |
| 2026-05-05 14:09 | 42.84842 | 16.72603 | 34098 ft | 487 kts | 77° |
| 2026-05-05 14:09 | 42.86128 | 16.81662 | 34103 ft | 486 kts | 77° |
| 2026-05-05 14:10 | 42.87405 | 16.90710 | 34102 ft | 485 kts | 77° |
| 2026-05-05 14:10 | 42.88679 | 16.99728 | 34108 ft | 484 kts | 77° |
| 2026-05-05 14:11 | 42.89950 | 17.08742 | 34106 ft | 484 kts | 77° |
| 2026-05-05 14:11 | 42.91203 | 17.17748 | 34107 ft | 483 kts | 77° |
| 2026-05-05 14:12 | 42.92444 | 17.26744 | 34116 ft | 482 kts | 77° |
| 2026-05-05 14:12 | 42.93680 | 17.35735 | 34116 ft | 481 kts | 78° |
| 2026-05-05 14:13 | 42.94907 | 17.44702 | 34118 ft | 480 kts | 78° |
| 2026-05-05 14:13 | 42.96124 | 17.53647 | 34117 ft | 479 kts | 78° |
| 2026-05-05 14:14 | 42.97332 | 17.62574 | 34120 ft | 477 kts | 78° |
| 2026-05-05 14:14 | 42.98522 | 17.71421 | 34113 ft | 476 kts | 78° |
| 2026-05-05 14:15 | 42.99712 | 17.80300 | 34118 ft | 475 kts | 78° |
| 2026-05-05 14:15 | 43.00889 | 17.89173 | 34113 ft | 474 kts | 78° |
| 2026-05-05 14:16 | 43.02051 | 17.98030 | 34112 ft | 473 kts | 78° |
| 2026-05-05 14:16 | 43.03207 | 18.06864 | 34115 ft | 472 kts | 78° |
| 2026-05-05 14:17 | 43.04360 | 18.15680 | 34114 ft | 471 kts | 78° |
| 2026-05-05 14:17 | 43.05501 | 18.24484 | 34116 ft | 470 kts | 78° |
| 2026-05-05 14:18 | 43.06627 | 18.33273 | 34114 ft | 469 kts | 78° |
| 2026-05-05 14:18 | 43.07748 | 18.42043 | 34112 ft | 468 kts | 78° |
| 2026-05-05 14:19 | 43.08867 | 18.50807 | 34112 ft | 467 kts | 78° |
| 2026-05-05 14:19 | 43.09972 | 18.59555 | 34108 ft | 466 kts | 79° |
| 2026-05-05 14:20 | 43.11054 | 18.68231 | 34107 ft | 465 kts | 78° |
| 2026-05-05 14:20 | 43.12131 | 18.76948 | 34099 ft | 464 kts | 79° |
| 2026-05-05 14:21 | 43.13207 | 18.85648 | 34093 ft | 463 kts | 79° |
| 2026-05-05 14:21 | 43.14282 | 18.94337 | 34087 ft | 463 kts | 79° |
| 2026-05-05 14:22 | 43.15349 | 19.03038 | 34080 ft | 463 kts | 79° |
| 2026-05-05 14:22 | 43.16399 | 19.11746 | 34074 ft | 464 kts | 79° |
| 2026-05-05 14:23 | 43.17446 | 19.20466 | 34068 ft | 464 kts | 79° |
| 2026-05-05 14:23 | 43.18483 | 19.29200 | 34065 ft | 465 kts | 80° |
| 2026-05-05 14:24 | 43.19238 | 19.37992 | 34059 ft | 465 kts | 83° |
| 2026-05-05 14:24 | 43.19758 | 19.46825 | 34052 ft | 465 kts | 84° |
| 2026-05-05 14:25 | 43.20274 | 19.55673 | 34043 ft | 465 kts | 83° |
| 2026-05-05 14:25 | 43.20861 | 19.64501 | 34039 ft | 465 kts | 83° |
| 2026-05-05 14:26 | 43.21475 | 19.73326 | 34041 ft | 465 kts | 82° |
| 2026-05-05 14:26 | 43.22070 | 19.82170 | 34039 ft | 466 kts | 83° |
| 2026-05-05 14:27 | 43.22643 | 19.91009 | 34030 ft | 466 kts | 83° |
| 2026-05-05 14:27 | 43.23210 | 19.99860 | 34031 ft | 466 kts | 83° |
| 2026-05-05 14:28 | 43.23764 | 20.08716 | 34032 ft | 466 kts | 82° |
| 2026-05-05 14:28 | 43.24314 | 20.17581 | 34032 ft | 466 kts | 82° |
| 2026-05-05 14:29 | 43.24863 | 20.26441 | 34029 ft | 466 kts | 82° |
| 2026-05-05 14:29 | 43.25400 | 20.35242 | 34013 ft | 466 kts | 82° |
| 2026-05-05 14:30 | 43.25927 | 20.44066 | 33802 ft | 459 kts | 82° |
| 2026-05-05 14:30 | 43.26189 | 20.48454 | 33383 ft | 453 kts | 82° |
| 2026-05-05 14:30 | 43.26444 | 20.52750 | 32912 ft | 450 kts | 82° |
| 2026-05-05 14:31 | 43.26694 | 20.57006 | 32472 ft | 446 kts | 82° |
| 2026-05-05 14:31 | 43.26936 | 20.61174 | 32034 ft | 442 kts | 82° |
| 2026-05-05 14:31 | 43.27177 | 20.65357 | 31600 ft | 439 kts | 82° |
| 2026-05-05 14:31 | 43.27416 | 20.69517 | 31184 ft | 435 kts | 82° |
| 2026-05-05 14:32 | 43.27654 | 20.73647 | 30727 ft | 433 kts | 82° |
| 2026-05-05 14:32 | 43.27889 | 20.77746 | 30328 ft | 429 kts | 82° |
| 2026-05-05 14:32 | 43.28119 | 20.81811 | 29909 ft | 426 kts | 82° |
| 2026-05-05 14:32 | 43.28346 | 20.85853 | 29450 ft | 423 kts | 83° |
| 2026-05-05 14:33 | 43.28573 | 20.89870 | 28993 ft | 420 kts | 83° |
| 2026-05-05 14:33 | 43.28799 | 20.93846 | 28575 ft | 416 kts | 83° |
| 2026-05-05 14:33 | 43.29018 | 20.97783 | 28156 ft | 413 kts | 83° |
| 2026-05-05 14:33 | 43.29163 | 21.00427 | 27884 ft | 410 kts | 83° |
| 2026-05-05 14:34 | 43.29371 | 21.04271 | 27494 ft | 407 kts | 83° |
| 2026-05-05 14:34 | 43.29581 | 21.08177 | 27114 ft | 404 kts | 83° |
| 2026-05-05 14:34 | 43.29784 | 21.11959 | 26756 ft | 401 kts | 83° |
| 2026-05-05 14:34 | 43.29988 | 21.15761 | 26387 ft | 398 kts | 83° |
| 2026-05-05 14:35 | 43.30187 | 21.19537 | 26010 ft | 395 kts | 83° |
| 2026-05-05 14:35 | 43.30382 | 21.23284 | 25644 ft | 392 kts | 83° |
| 2026-05-05 14:35 | 43.30509 | 21.27009 | 25272 ft | 390 kts | 89° |
| 2026-05-05 14:35 | 43.30284 | 21.30717 | 24894 ft | 389 kts | 97° |
| 2026-05-05 14:36 | 43.29688 | 21.34331 | 24513 ft | 388 kts | 105° |
| 2026-05-05 14:36 | 43.28916 | 21.37868 | 24143 ft | 385 kts | 105° |
| 2026-05-05 14:36 | 43.28154 | 21.41380 | 23773 ft | 383 kts | 105° |
| 2026-05-05 14:36 | 43.27402 | 21.44868 | 23359 ft | 380 kts | 105° |
| 2026-05-05 14:37 | 43.26655 | 21.48335 | 22935 ft | 377 kts | 105° |
| 2026-05-05 14:37 | 43.25913 | 21.51770 | 22510 ft | 374 kts | 105° |
| 2026-05-05 14:37 | 43.25175 | 21.55172 | 22104 ft | 370 kts | 105° |
| 2026-05-05 14:37 | 43.24441 | 21.58540 | 21704 ft | 367 kts | 105° |
| 2026-05-05 14:38 | 43.23712 | 21.61885 | 21304 ft | 364 kts | 105° |
| 2026-05-05 14:38 | 43.22987 | 21.65201 | 20902 ft | 361 kts | 105° |
| 2026-05-05 14:38 | 43.22267 | 21.68486 | 20509 ft | 359 kts | 105° |
| 2026-05-05 14:38 | 43.21552 | 21.71746 | 20116 ft | 356 kts | 105° |
| 2026-05-05 14:39 | 43.20843 | 21.74977 | 19721 ft | 353 kts | 105° |
| 2026-05-05 14:39 | 43.20140 | 21.78186 | 19336 ft | 350 kts | 105° |
| 2026-05-05 14:39 | 43.19441 | 21.81368 | 18944 ft | 347 kts | 105° |
| 2026-05-05 14:39 | 43.18745 | 21.84525 | 18570 ft | 345 kts | 105° |
| 2026-05-05 14:40 | 43.18054 | 21.87655 | 18199 ft | 342 kts | 105° |
| 2026-05-05 14:40 | 43.17367 | 21.90768 | 17763 ft | 340 kts | 105° |
| 2026-05-05 14:40 | 43.16685 | 21.93853 | 17367 ft | 338 kts | 105° |
| 2026-05-05 14:40 | 43.16005 | 21.96926 | 16937 ft | 335 kts | 105° |
| 2026-05-05 14:41 | 43.15329 | 21.99972 | 16536 ft | 333 kts | 105° |
| 2026-05-05 14:41 | 43.14659 | 22.02999 | 16125 ft | 332 kts | 105° |
| 2026-05-05 14:41 | 43.13999 | 22.05970 | 15740 ft | 329 kts | 105° |
| 2026-05-05 14:41 | 43.13333 | 22.08960 | 15349 ft | 327 kts | 105° |
| 2026-05-05 14:42 | 43.12660 | 22.11971 | 14968 ft | 325 kts | 106° |
| 2026-05-05 14:42 | 43.12009 | 22.14883 | 14595 ft | 323 kts | 106° |
| 2026-05-05 14:42 | 43.11350 | 22.17816 | 14222 ft | 322 kts | 106° |
| 2026-05-05 14:42 | 43.10693 | 22.20734 | 13857 ft | 320 kts | 106° |
| 2026-05-05 14:43 | 43.10040 | 22.23633 | 13443 ft | 318 kts | 106° |
| 2026-05-05 14:43 | 43.09391 | 22.26523 | 13054 ft | 316 kts | 106° |
| 2026-05-05 14:43 | 43.08749 | 22.29389 | 12669 ft | 314 kts | 106° |
| 2026-05-05 14:43 | 43.08111 | 22.32230 | 12296 ft | 312 kts | 106° |
| 2026-05-05 14:44 | 43.07475 | 22.35059 | 11921 ft | 310 kts | 107° |
| 2026-05-05 14:44 | 43.06843 | 22.37860 | 11557 ft | 307 kts | 107° |
| 2026-05-05 14:44 | 43.06217 | 22.40638 | 11198 ft | 305 kts | 107° |
| 2026-05-05 14:44 | 43.05591 | 22.43403 | 10838 ft | 303 kts | 107° |
| 2026-05-05 14:45 | 43.04971 | 22.46142 | 10488 ft | 301 kts | 107° |
| 2026-05-05 14:45 | 43.04356 | 22.48861 | 10144 ft | 299 kts | 108° |
| 2026-05-05 14:45 | 43.03743 | 22.51551 | 9884 ft | 292 kts | 108° |
| 2026-05-05 14:45 | 43.03143 | 22.54181 | 9598 ft | 288 kts | 108° |
| 2026-05-05 14:46 | 43.02552 | 22.56770 | 9383 ft | 281 kts | 108° |
| 2026-05-05 14:46 | 43.01756 | 22.59137 | 9253 ft | 270 kts | 127° |
| 2026-05-05 14:46 | 43.00446 | 22.60886 | 9122 ft | 259 kts | 144° |
| 2026-05-05 14:46 | 42.99009 | 22.62307 | 8982 ft | 251 kts | 144° |
| 2026-05-05 14:47 | 42.97606 | 22.63694 | 8715 ft | 248 kts | 144° |
| 2026-05-05 14:47 | 42.96236 | 22.65049 | 8477 ft | 240 kts | 144° |
| 2026-05-05 14:47 | 42.94895 | 22.66374 | 8154 ft | 237 kts | 144° |
| 2026-05-05 14:47 | 42.93561 | 22.67691 | 7819 ft | 236 kts | 144° |
| 2026-05-05 14:48 | 42.92269 | 22.68968 | 7661 ft | 220 kts | 144° |
| 2026-05-05 14:48 | 42.91071 | 22.70149 | 7416 ft | 208 kts | 144° |
| 2026-05-05 14:48 | 42.89924 | 22.71277 | 7226 ft | 197 kts | 144° |
| 2026-05-05 14:48 | 42.88861 | 22.72319 | 7110 ft | 180 kts | 144° |
| 2026-05-05 14:49 | 42.87993 | 22.73488 | 6954 ft | 172 kts | 132° |
| 2026-05-05 14:49 | 42.87215 | 22.74639 | 6940 ft | 162 kts | 133° |
| 2026-05-05 14:49 | 42.86397 | 22.75844 | 6957 ft | 185 kts | 133° |
| 2026-05-05 14:49 | 42.85488 | 22.77185 | 6955 ft | 198 kts | 133° |
| 2026-05-05 14:50 | 42.84544 | 22.78579 | 6936 ft | 202 kts | 133° |
| 2026-05-05 14:50 | 42.83590 | 22.79987 | 6941 ft | 202 kts | 132° |
| 2026-05-05 14:50 | 42.82637 | 22.81393 | 6935 ft | 202 kts | 132° |
| 2026-05-05 14:50 | 42.81684 | 22.82799 | 6936 ft | 202 kts | 132° |
| 2026-05-05 14:51 | 42.80732 | 22.84205 | 6932 ft | 202 kts | 132° |
| 2026-05-05 14:51 | 42.79779 | 22.85613 | 6941 ft | 202 kts | 132° |
| 2026-05-05 14:51 | 42.78825 | 22.87021 | 6947 ft | 202 kts | 132° |
| 2026-05-05 14:51 | 42.77874 | 22.88423 | 6937 ft | 202 kts | 132° |
| 2026-05-05 14:52 | 42.76931 | 22.89808 | 6948 ft | 202 kts | 132° |
| 2026-05-05 14:52 | 42.75965 | 22.91228 | 6941 ft | 202 kts | 132° |
| 2026-05-05 14:52 | 42.75012 | 22.92626 | 6953 ft | 201 kts | 132° |
| 2026-05-05 14:52 | 42.74062 | 22.94024 | 6954 ft | 201 kts | 132° |
| 2026-05-05 14:53 | 42.73109 | 22.95425 | 6949 ft | 202 kts | 131° |
| 2026-05-05 14:53 | 42.72355 | 22.97015 | 6951 ft | 201 kts | 110° |
| 2026-05-05 14:53 | 42.72113 | 22.98873 | 6947 ft | 200 kts | 94° |
| 2026-05-05 14:53 | 42.72016 | 23.00661 | 6925 ft | 179 kts | 94° |
| 2026-05-05 14:54 | 42.71930 | 23.02247 | 6773 ft | 160 kts | 94° |
| 2026-05-05 14:54 | 42.71848 | 23.03726 | 6489 ft | 155 kts | 94° |
| 2026-05-05 14:54 | 42.71766 | 23.05176 | 6172 ft | 153 kts | 94° |
| 2026-05-05 14:54 | 42.71686 | 23.06606 | 5808 ft | 152 kts | 94° |
| 2026-05-05 14:55 | 42.71605 | 23.08027 | 5494 ft | 150 kts | 93° |
| 2026-05-05 14:55 | 42.71525 | 23.09442 | 5167 ft | 149 kts | 94° |
| 2026-05-05 14:55 | 42.71446 | 23.10832 | 4807 ft | 148 kts | 94° |
| 2026-05-05 14:55 | 42.71367 | 23.12215 | 4482 ft | 146 kts | 93° |
| 2026-05-05 14:56 | 42.71289 | 23.13591 | 4171 ft | 147 kts | 94° |
| 2026-05-05 14:56 | 42.71210 | 23.14965 | 4010 ft | 146 kts | 94° |
| 2026-05-05 14:56 | 42.71131 | 23.16337 | 3976 ft | 146 kts | 93° |
| 2026-05-05 14:56 | 42.71052 | 23.17712 | 3969 ft | 146 kts | 94° |
| 2026-05-05 14:57 | 42.70973 | 23.19093 | 3976 ft | 146 kts | 94° |
| 2026-05-05 14:57 | 42.70893 | 23.20464 | 3978 ft | 145 kts | 92° |
| 2026-05-05 14:57 | 42.70814 | 23.21836 | 3976 ft | 145 kts | 94° |
| 2026-05-05 14:57 | 42.70735 | 23.23206 | 3974 ft | 145 kts | 93° |
| 2026-05-05 14:58 | 42.70655 | 23.24573 | 3895 ft | 144 kts | 94° |
| 2026-05-05 14:58 | 42.70576 | 23.25935 | 3761 ft | 145 kts | 92° |
| 2026-05-05 14:58 | 42.70496 | 23.27306 | 3596 ft | 146 kts | 94° |
| 2026-05-05 14:58 | 42.70416 | 23.28678 | 3408 ft | 146 kts | 94° |
| 2026-05-05 14:59 | 42.70336 | 23.30048 | 3224 ft | 146 kts | 93° |
| 2026-05-05 14:59 | 42.70255 | 23.31421 | 3033 ft | 147 kts | 93° |
| 2026-05-05 14:59 | 42.70174 | 23.32805 | 2820 ft | 148 kts | 92° |
| 2026-05-05 14:59 | 42.70091 | 23.34203 | 2630 ft | 149 kts | 92° |
| 2026-05-05 15:00 | 42.70009 | 23.35598 | 2434 ft | 147 kts | 93° |
| 2026-05-05 15:00 | 42.69955 | 23.36512 | 2301 ft | 146 kts | 93° |
| 2026-05-05 15:00 | 42.69846 | 23.38348 | 2036 ft | 145 kts | 95° |
| 2026-05-05 15:00 | 42.69765 | 23.39705 | 1813 ft | 143 kts | 94° |
| 2026-05-05 15:01 | 42.69679 | 23.40980 | 1766 ft | 122 kts | 97° |
| 2026-05-05 15:01 | 42.69613 | 23.42231 | 2161 ft | 142 kts | 92° |
| 2026-05-05 15:01 | 42.69512 | 23.43606 | 2587 ft | 150 kts | 95° |
| 2026-05-05 15:01 | 42.69204 | 23.44995 | 3067 ft | 158 kts | 112° |
| 2026-05-05 15:02 | 42.68916 | 23.46434 | 3641 ft | 158 kts | 94° |
| 2026-05-05 15:02 | 42.68837 | 23.47936 | 3946 ft | 158 kts | 91° |
| 2026-05-05 15:02 | 42.68895 | 23.49349 | 3978 ft | 146 kts | 68° |
| 2026-05-05 15:02 | 42.69691 | 23.50109 | 4141 ft | 148 kts | 12° |
| 2026-05-05 15:03 | 42.70690 | 23.49762 | 4267 ft | 153 kts | 335° |
| 2026-05-05 15:03 | 42.71624 | 23.49100 | 4221 ft | 151 kts | 334° |
| 2026-05-05 15:03 | 42.72529 | 23.48352 | 4153 ft | 152 kts | 330° |
| 2026-05-05 15:03 | 42.73166 | 23.47191 | 4082 ft | 160 kts | 289° |
| 2026-05-05 15:04 | 42.73082 | 23.45711 | 4017 ft | 160 kts | 247° |
| 2026-05-05 15:04 | 42.72736 | 23.44258 | 3977 ft | 161 kts | 261° |
| 2026-05-05 15:04 | 42.72593 | 23.42748 | 3967 ft | 162 kts | 265° |
| 2026-05-05 15:04 | 42.72476 | 23.41223 | 3960 ft | 163 kts | 264° |
| 2026-05-05 15:05 | 42.72220 | 23.38175 | 3957 ft | 162 kts | 262° |
| 2026-05-05 15:05 | 42.72078 | 23.36651 | 3955 ft | 162 kts | 263° |
| 2026-05-05 15:05 | 42.71930 | 23.35130 | 3959 ft | 162 kts | 262° |
| 2026-05-05 15:06 | 42.71644 | 23.33656 | 3947 ft | 162 kts | 243° |
| 2026-05-05 15:06 | 42.71376 | 23.32175 | 3978 ft | 161 kts | 266° |
| 2026-05-05 15:06 | 42.71410 | 23.30632 | 3862 ft | 162 kts | 280° |
| 2026-05-05 15:06 | 42.71576 | 23.29126 | 3682 ft | 160 kts | 281° |
| 2026-05-05 15:07 | 42.71659 | 23.27627 | 3472 ft | 160 kts | 255° |
| 2026-05-05 15:07 | 42.70972 | 23.26515 | 3299 ft | 157 kts | 199° |
| 2026-05-05 15:07 | 42.69977 | 23.26666 | 3107 ft | 147 kts | 135° |
| 2026-05-05 15:07 | 42.69723 | 23.27915 | 2968 ft | 143 kts | 76° |
| 2026-05-05 15:08 | 42.69933 | 23.29245 | 2895 ft | 146 kts | 81° |
| 2026-05-05 15:08 | 42.70013 | 23.30619 | 2794 ft | 147 kts | 89° |
| 2026-05-05 15:08 | 42.69953 | 23.32006 | 2677 ft | 147 kts | 93° |
| 2026-05-05 15:08 | 42.69908 | 23.33397 | 2560 ft | 148 kts | 90° |
| 2026-05-05 15:09 | 42.69943 | 23.34787 | 2421 ft | 146 kts | 81° |
| 2026-05-05 15:09 | 42.69971 | 23.36164 | 2290 ft | 147 kts | 91° |
| 2026-05-05 15:09 | 42.69890 | 23.37539 | 2136 ft | 145 kts | 94° |
| 2026-05-05 15:09 | 42.69819 | 23.38900 | 1935 ft | 144 kts | 96° |
| 2026-05-05 15:10 | 42.69741 | 23.40247 | 1768 ft | 140 kts | 95° |
| 2026-05-05 15:10 | 42.69672 | 23.41343 | 1746 ft | 79 kts | 95° |
| 2026-05-05 15:10 | 42.69646 | 23.41781 | 1751 ft | 35 kts | 95° |
| 2026-05-05 15:10 | 42.69626 | 23.42106 | 1751 ft | 33 kts | 95° |
| 2026-05-05 15:11 | 42.69606 | 23.42380 | 1744 ft | 22 kts | 98° |
| 2026-05-05 15:11 | 42.69559 | 23.42578 | 1746 ft | 22 kts | 116° |
| 2026-05-05 15:11 | 42.69496 | 23.42717 | 1746 ft | 13 kts | 128° |
| 2026-05-05 15:11 | 42.69419 | 23.42731 | 1743 ft | 12 kts | 229° |
| 2026-05-05 15:12 | 42.69406 | 23.42613 | 1749 ft | 14 kts | 274° |
| 2026-05-05 15:12 | 42.69414 | 23.42479 | 1752 ft | 15 kts | 275° |
| 2026-05-05 15:12 | 42.69423 | 23.42329 | 1747 ft | 17 kts | 274° |
| 2026-05-05 15:12 | 42.69433 | 23.42165 | 1751 ft | 18 kts | 275° |
| 2026-05-05 15:13 | 42.69443 | 23.41986 | 1751 ft | 20 kts | 274° |
| 2026-05-05 15:13 | 42.69454 | 23.41793 | 1748 ft | 21 kts | 275° |
| 2026-05-05 15:13 | 42.69467 | 23.41596 | 1745 ft | 19 kts | 275° |
| 2026-05-05 15:13 | 42.69476 | 23.41429 | 1750 ft | 17 kts | 274° |
| 2026-05-05 15:14 | 42.69485 | 23.41289 | 1746 ft | 11 kts | 271° |
| 2026-05-05 15:14 | 42.69453 | 23.41214 | 1746 ft | 8 kts | 200° |
| 2026-05-05 15:14 | 42.69402 | 23.41198 | 1750 ft | 7 kts | 192° |
| 2026-05-05 15:14 | 42.69309 | 23.41170 | 1743 ft | 16 kts | 192° |
| 2026-05-05 15:15 | 42.69207 | 23.41153 | 1744 ft | 13 kts | 172° |
| 2026-05-05 15:15 | 42.69127 | 23.41186 | 1745 ft | 9 kts | 162° |
| 2026-05-05 15:15 | 42.69099 | 23.41208 | 1747 ft | 2 kts | 114° |
| 2026-05-05 15:15 | 42.69098 | 23.41229 | 1745 ft | 1 kts | 89° |
| 2026-05-05 15:16 | 42.69100 | 23.41236 | 1745 ft | 1 kts | 74° |
| 2026-05-05 15:16 | 42.69104 | 23.41256 | 1750 ft | 2 kts | 73° |
| 2026-05-05 15:16 | 42.69106 | 23.41265 | 1742 ft | 0 kts | 72° |
| 2026-05-05 15:16 | 42.69109 | 23.41276 | 1745 ft | 1 kts | 72° |
| 2026-05-05 15:17 | 42.69110 | 23.41281 | 1746 ft | 0 kts | 72° |
| 2026-05-05 15:17 | 42.69110 | 23.41283 | 1746 ft | 0 kts | 72° |